Brainard, New York
Current Conditions -  °F | °C
As of 12:54 AM on Wednesday 28 Jan 2015 (Local Time) from KPSF Reporting Station
Light Snow Light Snow  
Wind Chill: -8°   Ceiling: 3900
Heat Index:   Visibility: 4mi
Dew Point:   Wind: 15mph
Humidity: 70%   Direction: 330°NNW
Pressure: 29.73"   Gusts: 23mph
Location:  42.5°N, 73.51°W
Report Text: KPSF 280554Z AUTO 33013G20KT 4SM -SN FEW027 OVC039 M13/M17 A2973 RMK AO2 PK WND 36027/0508 SLP098 P0000 60001 T11281172 11128 21144 50008
Loading
Personal Weather Stations






























Interactive Weather Map New forecast layout! Learn more

10-Day Weather Forecast

Advertisements
Track Severe Weather on mobile